Time;durP1;ratioP1;P1;durP2;ratioP2;P2;SDS_P1;SDS_P2;PMS_P1;PMS_P2;Temp;Humidity;BMP_temperature;BMP_pressure;BME280_temperature;BME280_humidity;BME280_pressure;Samples;Min_cycle;Max_cycle;Signal;HPM_P1;HPM_P2
2022/04/09 00:04:29;;;;;;;;;;;;;;;21.98;30.77;93326.53;10463593;28;1971;-41
2022/04/09 00:09:29;;;;;;;;;;;;;;;21.92;30.80;93340.31;10468526;28;1854;-41
2022/04/09 00:14:29;;;;;;;;;;;;;;;21.91;30.89;93344.06;10459727;28;1837;-40
2022/04/09 00:19:30;;;;;;;;;;;;;;;22.03;30.50;93363.19;10463581;28;1950;-44
2022/04/09 00:24:30;;;;;;;;;;;;;;;21.91;30.86;93389.63;10464185;28;1910;-42
2022/04/09 00:29:30;;;;;;;;;;;;;;;21.77;30.23;93410.34;10463640;28;1849;-41
2022/04/09 00:34:31;;;;;;;;;;;;;;;21.78;30.38;93422.44;10456532;28;1729;-44
2022/04/09 00:39:31;;;;;;;;;;;;;;;21.77;29.99;93452.53;10460214;28;1793;-43
2022/04/09 00:44:31;;;;;;;;;;;;;;;21.76;30.60;93448.38;10459583;28;2287;-43
2022/04/09 00:49:32;;;;;;;;;;;;;;;21.70;30.40;93494.53;10470973;28;1977;-43
2022/04/09 00:54:32;;;;;;;;;;;;;;;21.67;30.31;93497.84;10460371;28;1905;-46
2022/04/09 00:59:36;;;;;;;;;;;;;;;21.67;30.43;93532.09;10462675;28;1881;-47
2022/04/09 01:04:39;;;;;;;;;;;;;;;21.68;30.01;93534.41;10465243;28;1918;-45
2022/04/09 01:09:39;;;;;;;;;;;;;;;21.71;30.49;93543.53;10463391;28;2012;-48
2022/04/09 01:14:39;;;;;;;;;;;;;;;21.70;30.77;93647.47;10460370;28;1956;-48
2022/04/09 01:19:40;;;;;;;;;;;;;;;21.74;30.77;93659.66;10466602;28;1934;-44
2022/04/09 01:24:40;;;;;;;;;;;;;;;21.75;31.10;93681.53;10461826;28;1942;-41
2022/04/09 01:29:43;;;;;;;;;;;;;;;21.82;30.53;93693.06;10464018;28;1863;-45
2022/04/09 01:34:44;;;;;;;;;;;;;;;21.82;30.59;93713.44;10462296;28;2051;-44
2022/04/09 01:39:44;;;;;;;;;;;;;;;21.81;30.87;93728.47;10459999;28;1950;-45
2022/04/09 01:44:44;;;;;;;;;;;;;;;21.87;30.69;93758.03;10464261;28;2063;-40
2022/04/09 01:49:45;;;;;;;;;;;;;;;21.82;31.02;93788.03;10458594;28;2037;-40
2022/04/09 01:54:45;;;;;;;;;;;;;;;21.80;30.71;93810.53;10468012;28;1894;-45
2022/04/09 01:59:46;;;;;;;;;;;;;;;21.83;31.29;93846.81;10470403;28;1886;-47
2022/04/09 02:04:46;;;;;;;;;;;;;;;21.78;30.94;93876.78;10469361;28;1967;-40
2022/04/09 02:09:46;;;;;;;;;;;;;;;21.85;30.85;93886.84;10470451;28;2202;-40
2022/04/09 02:14:46;;;;;;;;;;;;;;;21.85;31.12;93956.19;10466966;28;1901;-41
2022/04/09 02:19:47;;;;;;;;;;;;;;;21.86;31.11;93999.91;10468880;28;1923;-44
2022/04/09 02:24:50;;;;;;;;;;;;;;;21.88;30.91;94017.31;10464928;28;2032;-43
2022/04/09 02:29:50;;;;;;;;;;;;;;;21.84;31.06;94031.13;10467526;28;2012;-43
2022/04/09 02:34:55;;;;;;;;;;;;;;;21.85;31.18;94071.47;10469222;28;1855;-41
2022/04/09 02:39:55;;;;;;;;;;;;;;;21.81;31.04;94066.06;10469412;28;1934;-42
2022/04/09 02:44:57;;;;;;;;;;;;;;;21.81;31.26;94097.72;10468660;28;1971;-42
2022/04/09 02:49:58;;;;;;;;;;;;;;;21.84;31.32;94120.06;10465717;28;1917;-42
2022/04/09 02:54:58;;;;;;;;;;;;;;;21.82;31.16;94141.47;10464096;28;1977;-40
2022/04/09 02:59:59;;;;;;;;;;;;;;;21.84;31.25;94188.63;10467545;28;1824;-43
2022/04/09 03:04:59;;;;;;;;;;;;;;;21.80;30.96;94232.53;10471939;28;2129;-43
2022/04/09 03:09:59;;;;;;;;;;;;;;;21.83;31.09;94274.13;10461074;28;2320;-40
2022/04/09 03:15:00;;;;;;;;;;;;;;;21.80;31.01;94287.94;10461338;28;1874;-40
2022/04/09 03:20:00;;;;;;;;;;;;;;;21.80;30.95;94312.41;10471272;28;2127;-40
2022/04/09 03:25:01;;;;;;;;;;;;;;;21.80;31.05;94317.69;10466707;28;2400;-41
2022/04/09 03:30:01;;;;;;;;;;;;;;;21.81;30.98;94329.03;10458570;28;2033;-41
2022/04/09 03:35:01;;;;;;;;;;;;;;;21.80;31.09;94353.88;10452407;23;2281;-72
2022/04/09 03:40:02;;;;;;;;;;;;;;;21.80;30.77;94386.28;10406878;28;2013;-72
2022/04/09 03:45:03;;;;;;;;;;;;;;;21.80;31.03;94428.47;10401766;28;2148;-72
2022/04/09 03:50:04;;;;;;;;;;;;;;;21.83;30.70;94435.03;10403923;28;1955;-72
2022/04/09 03:55:04;;;;;;;;;;;;;;;21.80;30.64;94462.03;10398782;28;1961;-72
2022/04/09 04:00:05;;;;;;;;;;;;;;;21.80;30.56;94469.94;10386906;28;1966;-72
2022/04/09 04:05:06;;;;;;;;;;;;;;;21.81;30.55;94474.91;10402594;28;2023;-71
2022/04/09 04:10:11;;;;;;;;;;;;;;;21.77;30.66;94470.53;10401260;28;1929;-71
2022/04/09 04:15:13;;;;;;;;;;;;;;;21.76;30.65;94506.69;10415040;28;1960;-72
2022/04/09 04:20:14;;;;;;;;;;;;;;;21.77;30.39;94525.94;10385330;28;1931;-71
2022/04/09 04:25:14;;;;;;;;;;;;;;;21.79;30.45;94536.94;10401996;28;1967;-72
2022/04/09 04:30:15;;;;;;;;;;;;;;;21.79;30.53;94563.34;10399377;28;1910;-72
2022/04/09 04:35:15;;;;;;;;;;;;;;;21.78;30.29;94567.06;10384351;28;2001;-72
2022/04/09 04:40:16;;;;;;;;;;;;;;;21.80;30.12;94586.00;10384539;28;2005;-72
2022/04/09 04:45:17;;;;;;;;;;;;;;;21.77;30.26;94612.97;10400756;28;2070;-72
2022/04/09 04:50:17;;;;;;;;;;;;;;;21.76;30.24;94622.75;10398662;28;2069;-72
2022/04/09 04:55:18;;;;;;;;;;;;;;;21.77;30.31;94628.81;10400817;28;1931;-72
2022/04/09 05:00:19;;;;;;;;;;;;;;;21.77;30.19;94634.88;10384736;28;2037;-72
2022/04/09 05:05:19;;;;;;;;;;;;;;;21.74;30.18;94635.47;10399690;28;1924;-73
2022/04/09 05:10:20;;;;;;;;;;;;;;;21.73;30.16;94662.94;10415875;28;1927;-72
2022/04/09 05:15:21;;;;;;;;;;;;;;;21.73;30.24;94697.22;10399703;28;1979;-72
2022/04/09 05:20:22;;;;;;;;;;;;;;;21.74;30.24;94724.41;10399158;28;2014;-71
2022/04/09 05:25:22;;;;;;;;;;;;;;;21.72;30.17;94740.50;10418285;28;1917;-71
2022/04/09 05:30:23;;;;;;;;;;;;;;;21.69;30.20;94756.16;10393991;28;1951;-71
2022/04/09 05:35:23;;;;;;;;;;;;;;;21.69;29.93;94770.13;10408928;28;1927;-70
2022/04/09 05:40:24;;;;;;;;;;;;;;;21.68;29.74;94778.34;10423366;28;1833;-71
2022/04/09 05:45:25;;;;;;;;;;;;;;;21.68;29.80;94807.34;10382812;28;2055;-70
2022/04/09 05:50:25;;;;;;;;;;;;;;;21.68;29.51;94817.91;10393979;28;2132;-71
2022/04/09 05:55:25;;;;;;;;;;;;;;;21.67;29.75;94827.69;10394998;28;1840;-71
2022/04/09 06:00:26;;;;;;;;;;;;;;;21.65;29.75;94843.03;10381878;28;1979;-72
2022/04/09 06:05:27;;;;;;;;;;;;;;;21.67;29.76;94840.09;10413534;28;1910;-71
2022/04/09 06:10:28;;;;;;;;;;;;;;;21.69;29.60;94851.91;10394448;28;1839;-72
2022/04/09 06:15:28;;;;;;;;;;;;;;;21.68;29.91;94865.38;10395322;28;1796;-72
2022/04/09 06:20:28;;;;;;;;;;;;;;;21.71;29.78;94883.25;10415363;28;1866;-70
2022/04/09 06:25:29;;;;;;;;;;;;;;;21.70;29.53;94887.75;10416240;28;2107;-69
2022/04/09 06:30:29;;;;;;;;;;;;;;;21.71;29.90;94899.84;10395654;28;1998;-70
2022/04/09 06:35:30;;;;;;;;;;;;;;;21.71;29.97;94912.25;10400383;28;1910;-70
2022/04/09 06:40:30;;;;;;;;;;;;;;;21.71;29.99;94912.25;10396614;28;1875;-71
2022/04/09 06:45:31;;;;;;;;;;;;;;;21.69;29.99;94920.47;10417775;28;1906;-71
2022/04/09 06:50:31;;;;;;;;;;;;;;;21.70;29.94;94923.91;10404031;28;1828;-71
2022/04/09 06:55:31;;;;;;;;;;;;;;;21.66;29.89;94933.47;10404882;28;1827;-72
2022/04/09 07:00:35;;;;;;;;;;;;;;;21.64;30.10;94946.19;10404288;28;1973;-72
2022/04/09 07:05:35;;;;;;;;;;;;;;;21.65;30.07;94950.38;10405157;28;1977;-72
2022/04/09 07:10:39;;;;;;;;;;;;;;;21.63;30.18;94961.25;10401552;28;1973;-72
2022/04/09 07:15:40;;;;;;;;;;;;;;;21.62;30.44;94959.66;10403935;28;1910;-71
2022/04/09 07:20:40;;;;;;;;;;;;;;;21.62;30.46;94969.44;10404560;28;1956;-72
2022/04/09 07:25:43;;;;;;;;;;;;;;;21.65;30.96;94969.63;10400997;28;1964;-72
2022/04/09 07:30:44;;;;;;;;;;;;;;;21.81;31.14;94984.06;10418374;28;1910;-72
2022/04/09 07:35:44;;;;;;;;;;;;;;;21.76;31.10;94986.00;10401547;28;1860;-72
2022/04/09 07:40:45;;;;;;;;;;;;;;;21.77;31.41;94992.84;10401562;28;2233;-72
2022/04/09 07:45:46;;;;;;;;;;;;;;;21.80;31.38;95002.81;10383196;28;2795;-72
2022/04/09 07:50:46;;;;;;;;;;;;;;;21.77;30.85;95003.38;10402558;28;1822;-70
2022/04/09 07:55:46;;;;;;;;;;;;;;;21.75;30.69;95005.53;10419821;28;1930;-70
2022/04/09 08:00:46;;;;;;;;;;;;;;;21.76;30.76;95015.03;10404687;28;1834;-70
2022/04/09 08:05:47;;;;;;;;;;;;;;;21.74;30.12;95025.09;10395406;28;1975;-70
2022/04/09 08:10:47;;;;;;;;;;;;;;;21.69;30.51;95031.25;10393511;28;2364;-70
2022/04/09 08:15:47;;;;;;;;;;;;;;;21.67;30.08;95038.69;10415416;28;1788;-70
2022/04/09 08:20:48;;;;;;;;;;;;;;;21.67;30.16;95043.19;10399690;28;2348;-70
2022/04/09 08:25:48;;;;;;;;;;;;;;;21.65;30.08;95042.69;10421908;28;1969;-70
2022/04/09 08:30:48;;;;;;;;;;;;;;;21.60;30.62;95046.22;10399640;28;1972;-70
2022/04/09 08:35:49;;;;;;;;;;;;;;;21.58;30.27;95060.78;10397588;28;1870;-70
2022/04/09 08:40:50;;;;;;;;;;;;;;;21.58;30.37;95063.41;10403623;28;1783;-69
2022/04/09 08:45:51;;;;;;;;;;;;;;;21.59;30.26;95054.44;10379760;28;1960;-69
2022/04/09 08:50:52;;;;;;;;;;;;;;;21.61;30.36;95054.91;10398166;28;1937;-68
2022/04/09 08:55:56;;;;;;;;;;;;;;;21.58;30.31;95066.03;10404306;28;1905;-74
2022/04/09 09:00:57;;;;;;;;;;;;;;;21.66;30.53;95071.41;10399851;28;1931;-74
2022/04/09 09:05:57;;;;;;;;;;;;;;;21.69;30.70;95060.28;10399212;28;1914;-74
2022/04/09 09:10:58;;;;;;;;;;;;;;;21.67;30.61;95072.19;10413817;28;2002;-72
2022/04/09 09:15:58;;;;;;;;;;;;;;;21.61;30.52;95070.75;10410604;28;1854;-71
2022/04/09 09:20:59;;;;;;;;;;;;;;;21.62;30.99;95080.19;10394652;28;1850;-71
2022/04/09 09:26:02;;;;;;;;;;;;;;;21.65;30.80;95090.97;10400683;28;2454;-73
2022/04/09 09:31:04;;;;;;;;;;;;;;;21.65;31.01;95095.44;10400157;28;1862;-72
2022/04/09 09:36:05;;;;;;;;;;;;;;;21.68;30.35;95100.13;10380523;28;1829;-73
2022/04/09 09:41:05;;;;;;;;;;;;;;;21.62;30.11;95107.38;10396253;28;1846;-72
2022/04/09 09:46:06;;;;;;;;;;;;;;;21.66;30.73;95113.63;10389266;28;2308;-73
2022/04/09 09:51:06;;;;;;;;;;;;;;;21.65;31.04;95117.34;10392477;28;2238;-73
2022/04/09 09:56:07;;;;;;;;;;;;;;;21.66;30.31;95118.09;10411616;28;1942;-73
2022/04/09 10:01:07;;;;;;;;;;;;;;;21.68;31.05;95115.94;10397160;28;1866;-73
2022/04/09 10:06:09;;;;;;;;;;;;;;;21.69;30.58;95123.59;10398870;28;1899;-74
2022/04/09 10:11:09;;;;;;;;;;;;;;;21.69;30.51;95128.06;10396583;28;1833;-74
2022/04/09 10:16:11;;;;;;;;;;;;;;;21.67;30.64;95123.09;10396260;28;1881;-73
2022/04/09 10:21:11;;;;;;;;;;;;;;;21.66;30.72;95129.44;10421591;28;1850;-74
2022/04/09 10:26:11;;;;;;;;;;;;;;;21.69;30.49;95120.94;10422442;28;1914;-74
2022/04/09 10:31:22;;;;;;;;;;;;;;;21.67;30.99;95127.59;10405799;28;1809;-73
2022/04/09 10:36:41;;;;;;;;;;;;;;;21.69;31.04;95133.34;10406408;28;1852;-73
2022/04/09 10:41:42;;;;;;;;;;;;;;;21.67;30.65;95130.22;10405831;28;1915;-73
2022/04/09 10:46:43;;;;;;;;;;;;;;;21.67;30.45;95135.50;10422526;28;1912;-73
2022/04/09 10:52:03;;;;;;;;;;;;;;;21.68;30.77;95137.06;10418609;28;1819;-74
2022/04/09 10:57:10;;;;;;;;;;;;;;;21.66;30.69;95140.00;10399375;28;2165;-73
2022/04/09 11:02:13;;;;;;;;;;;;;;;21.68;30.09;95142.31;10422113;28;1849;-72
2022/04/09 11:07:18;;;;;;;;;;;;;;;21.65;31.00;95143.72;10404521;28;1898;-72
2022/04/09 11:12:24;;;;;;;;;;;;;;;21.66;30.75;95133.94;10383621;28;1907;-73
2022/04/09 11:17:28;;;;;;;;;;;;;;;21.67;30.69;95138.94;10385038;28;1868;-72
2022/04/09 11:22:38;;;;;;;;;;;;;;;21.66;30.11;95145.25;10398911;28;1906;-71
2022/04/09 11:27:40;;;;;;;;;;;;;;;21.65;30.34;95154.28;10392964;28;1787;-70
2022/04/09 11:32:40;;;;;;;;;;;;;;;21.65;30.38;95149.00;10398600;28;1916;-69
2022/04/09 11:37:42;;;;;;;;;;;;;;;21.61;30.38;95150.66;10402447;28;1853;-70
2022/04/09 11:42:43;;;;;;;;;;;;;;;21.60;30.80;95146.44;10414274;28;1902;-71
2022/04/09 11:47:43;;;;;;;;;;;;;;;21.59;30.59;95150.16;10404921;28;1787;-70
2022/04/09 11:52:44;;;;;;;;;;;;;;;21.61;30.23;95149.88;10383526;28;1953;-69
2022/04/09 11:57:49;;;;;;;;;;;;;;;21.64;30.26;95144.00;10397865;28;1890;-71
2022/04/09 12:02:50;;;;;;;;;;;;;;;21.65;30.48;95156.91;10383440;28;1914;-71
2022/04/09 12:07:51;;;;;;;;;;;;;;;21.65;30.53;95149.00;10380886;28;1884;-70
2022/04/09 12:13:10;;;;;;;;;;;;;;;21.69;30.14;95160.50;10395309;28;1810;-70
2022/04/09 12:18:13;;;;;;;;;;;;;;;21.77;30.18;95151.13;10399647;28;2057;-70
2022/04/09 12:23:14;;;;;;;;;;;;;;;21.74;30.41;95152.47;10386119;28;1961;-70
2022/04/09 12:28:19;;;;;;;;;;;;;;;21.75;30.73;95150.63;10387466;28;1813;-70
2022/04/09 12:33:20;;;;;;;;;;;;;;;21.77;31.20;95153.75;10421157;28;2045;-70
2022/04/09 12:38:47;;;;;;;;;;;;;;;21.73;30.80;95158.06;10385173;28;1852;-71
2022/04/09 12:43:49;;;;;;;;;;;;;;;21.72;31.40;95153.88;10394047;28;1891;-72
2022/04/09 12:48:50;;;;;;;;;;;;;;;21.71;31.47;95150.44;10382056;28;1880;-69
2022/04/09 12:53:51;;;;;;;;;;;;;;;21.71;31.21;95147.03;10410434;28;2015;-70
2022/04/09 12:58:52;;;;;;;;;;;;;;;21.66;31.06;95139.19;10397320;28;1887;-71
2022/04/09 13:03:52;;;;;;;;;;;;;;;21.64;31.36;95146.63;10379027;28;1975;-73
2022/04/09 13:08:54;;;;;;;;;;;;;;;21.61;31.33;95152.50;10397873;28;2104;-72
2022/04/09 13:13:54;;;;;;;;;;;;;;;21.60;31.62;95157.00;10392975;28;1894;-72
2022/04/09 13:18:54;;;;;;;;;;;;;;;21.60;31.99;95150.94;10397219;28;1967;-72
2022/04/09 13:23:55;;;;;;;;;;;;;;;21.61;32.23;95147.22;10408952;28;1910;-70
2022/04/09 13:28:55;;;;;;;;;;;;;;;21.62;32.90;95141.66;10399457;28;2136;-71
2022/04/09 13:33:55;;;;;;;;;;;;;;;21.63;32.92;95145.09;10412694;28;1976;-72
2022/04/09 13:38:56;;;;;;;;;;;;;;;21.63;32.89;95150.34;10412033;28;1822;-69
2022/04/09 13:43:57;;;;;;;;;;;;;;;21.64;33.64;95141.34;10410763;28;1910;-71
2022/04/09 13:48:57;;;;;;;;;;;;;;;21.63;33.45;95145.88;10410634;28;2077;-72
2022/04/09 13:53:57;;;;;;;;;;;;;;;21.63;33.82;95139.81;10401389;28;2196;-70
2022/04/09 13:58:58;;;;;;;;;;;;;;;21.62;34.19;95132.94;10421100;28;2380;-68
2022/04/09 14:03:58;;;;;;;;;;;;;;;21.59;34.09;95123.78;10406356;28;1981;-71
2022/04/09 14:09:00;;;;;;;;;;;;;;;21.57;33.60;95115.41;10411488;28;1497;-71
2022/04/09 14:14:01;;;;;;;;;;;;;;;21.55;33.91;95117.56;10400920;28;1511;-73
2022/04/09 14:19:03;;;;;;;;;;;;;;;21.52;33.18;95112.06;10404401;28;1442;-72
2022/04/09 14:24:03;;;;;;;;;;;;;;;21.55;33.75;95111.50;10388473;28;1898;-75
2022/04/09 14:29:04;;;;;;;;;;;;;;;21.56;33.04;95115.66;10399839;28;1980;-74
2022/04/09 14:34:05;;;;;;;;;;;;;;;21.55;33.61;95125.47;10416579;28;1822;-73
2022/04/09 14:39:06;;;;;;;;;;;;;;;21.58;34.11;95137.25;10420045;28;1973;-76
2022/04/09 14:44:07;;;;;;;;;;;;;;;21.57;33.11;95130.44;10400359;28;1995;-72
2022/04/09 14:49:08;;;;;;;;;;;;;;;21.52;34.01;95123.41;10404895;28;1851;-73
2022/04/09 14:54:09;;;;;;;;;;;;;;;21.55;34.33;95138.66;10394986;28;1946;-74
2022/04/09 14:59:10;;;;;;;;;;;;;;;21.59;35.40;95133.56;10417064;28;2203;-74
2022/04/09 15:04:11;;;;;;;;;;;;;;;21.58;34.89;95134.63;10402736;28;1966;-75
2022/04/09 15:09:11;;;;;;;;;;;;;;;21.58;36.30;95143.31;10401964;28;1854;-72
2022/04/09 15:14:12;;;;;;;;;;;;;;;21.62;36.07;95138.22;10398799;28;2051;-73
2022/04/09 15:19:12;;;;;;;;;;;;;;;21.56;35.58;95140.19;10405788;28;1922;-73
2022/04/09 15:24:12;;;;;;;;;;;;;;;21.58;35.08;95147.81;10403083;28;1958;-73
2022/04/09 15:29:13;;;;;;;;;;;;;;;21.61;35.67;95152.50;10384115;28;1827;-74
2022/04/09 15:34:14;;;;;;;;;;;;;;;21.58;35.99;95145.97;10379788;28;1827;-73
2022/04/09 15:39:15;;;;;;;;;;;;;;;21.54;35.29;95163.44;10415968;28;1949;-74
2022/04/09 15:44:16;;;;;;;;;;;;;;;21.50;35.02;95166.94;10411382;28;1977;-74
2022/04/09 15:49:16;;;;;;;;;;;;;;;21.49;34.78;95160.13;10377008;28;2249;-74
2022/04/09 15:54:16;;;;;;;;;;;;;;;21.48;34.16;95177.00;10403511;28;1783;-73
2022/04/09 15:59:17;;;;;;;;;;;;;;;21.45;34.18;95181.00;10423364;28;1918;-74
2022/04/09 16:04:17;;;;;;;;;;;;;;;21.45;33.07;95181.00;10418421;28;1979;-74
2022/04/09 16:09:18;;;;;;;;;;;;;;;21.48;32.60;95198.91;10401813;28;1926;-75
2022/04/09 16:14:19;;;;;;;;;;;;;;;21.50;32.17;95193.31;10383927;28;1818;-74
2022/04/09 16:19:19;;;;;;;;;;;;;;;21.48;31.84;95195.47;10385602;28;1900;-74
2022/04/09 16:24:20;;;;;;;;;;;;;;;21.48;31.98;95206.81;10397189;28;1972;-74
2022/04/09 16:29:20;;;;;;;;;;;;;;;21.50;31.72;95198.59;10419238;28;2071;-73
2022/04/09 16:34:21;;;;;;;;;;;;;;;21.50;31.09;95206.50;10432336;28;1864;-73
2022/04/09 16:39:24;;;;;;;;;;;;;;;21.47;30.54;95213.16;10419821;28;1849;-73
2022/04/09 16:44:26;;;;;;;;;;;;;;;21.45;30.61;95215.28;10412367;28;1910;-72
2022/04/09 16:49:26;;;;;;;;;;;;;;;21.49;31.06;95204.97;10403029;28;1929;-72
2022/04/09 16:54:27;;;;;;;;;;;;;;;21.48;31.02;95213.94;10400816;28;1820;-71
2022/04/09 16:59:27;;;;;;;;;;;;;;;21.46;30.33;95221.34;10402689;28;1943;-73
2022/04/09 17:04:28;;;;;;;;;;;;;;;21.46;30.45;95224.78;10400489;28;1910;-73
2022/04/09 17:09:28;;;;;;;;;;;;;;;21.46;30.77;95234.53;10396957;28;1906;-73
2022/04/09 17:14:28;;;;;;;;;;;;;;;21.45;31.44;95225.84;10394597;28;1887;-74
2022/04/09 17:19:29;;;;;;;;;;;;;;;21.46;30.58;95223.97;10395148;28;1990;-73
2022/04/09 17:24:30;;;;;;;;;;;;;;;21.45;30.32;95244.28;10415370;28;2001;-73
2022/04/09 17:29:32;;;;;;;;;;;;;;;21.42;30.12;95244.88;10380581;28;1819;-73
2022/04/09 17:34:34;;;;;;;;;;;;;;;21.39;29.55;95249.97;10415116;28;1834;-72
2022/04/09 17:39:34;;;;;;;;;;;;;;;21.40;29.92;95254.16;10399762;28;1864;-73
2022/04/09 17:44:35;;;;;;;;;;;;;;;21.39;29.58;95249.97;10381282;28;1910;-72
2022/04/09 17:49:36;;;;;;;;;;;;;;;21.39;29.56;95258.63;10415338;28;1923;-72
2022/04/09 17:54:37;;;;;;;;;;;;;;;21.38;28.85;95265.00;10398809;28;1834;-74
2022/04/09 17:59:37;;;;;;;;;;;;;;;21.36;28.73;95271.63;10398401;28;1866;-72
2022/04/09 18:04:37;;;;;;;;;;;;;;;21.37;28.83;95279.25;10383369;28;2032;-71
2022/04/09 18:09:37;;;;;;;;;;;;;;;21.39;29.72;95289.53;10380462;28;1822;-72
2022/04/09 18:14:38;;;;;;;;;;;;;;;21.39;28.78;95300.81;10394106;28;1829;-72
2022/04/09 18:19:38;;;;;;;;;;;;;;;21.36;28.83;95309.31;10394313;28;1890;-73
2022/04/09 18:24:38;;;;;;;;;;;;;;;21.37;29.08;95316.16;10394650;28;2330;-73
2022/04/09 18:29:40;;;;;;;;;;;;;;;21.37;28.65;95320.66;10376289;28;1958;-73
2022/04/09 18:34:40;;;;;;;;;;;;;;;21.36;28.58;95334.91;10394056;28;1882;-74
2022/04/09 18:39:41;;;;;;;;;;;;;;;21.39;29.58;95339.63;10411648;28;1968;-74
2022/04/09 18:44:41;;;;;;;;;;;;;;;21.40;28.81;95351.72;10417537;28;1899;-74
2022/04/09 18:49:42;;;;;;;;;;;;;;;21.39;29.01;95358.06;10420939;28;1846;-74
2022/04/09 18:54:42;;;;;;;;;;;;;;;21.37;28.61;95373.41;10397216;28;2036;-73
2022/04/09 18:59:42;;;;;;;;;;;;;;;21.38;29.17;95382.84;10398707;28;1922;-74
2022/04/09 19:04:43;;;;;;;;;;;;;;;21.36;28.50;95385.78;10417359;28;1968;-74
2022/04/09 19:09:44;;;;;;;;;;;;;;;21.36;28.26;95403.44;10413004;28;2171;-71
2022/04/09 19:14:44;;;;;;;;;;;;;;;21.40;28.66;95404.44;10402839;28;1859;-73
2022/04/09 19:19:44;;;;;;;;;;;;;;;21.37;28.54;95408.44;10379706;28;2090;-72
2022/04/09 19:24:45;;;;;;;;;;;;;;;21.35;28.57;95410.56;10385838;28;2068;-74
2022/04/09 19:29:47;;;;;;;;;;;;;;;21.36;29.44;95408.72;10405691;28;1850;-74
2022/04/09 19:34:47;;;;;;;;;;;;;;;21.37;28.46;95415.59;10413974;28;1855;-73
2022/04/09 19:39:47;;;;;;;;;;;;;;;21.35;29.51;95415.84;10402349;28;1894;-73
2022/04/09 19:44:48;;;;;;;;;;;;;;;21.35;28.67;95423.75;10398504;28;1907;-74
2022/04/09 19:49:48;;;;;;;;;;;;;;;21.36;28.62;95441.16;10400803;28;1893;-72
2022/04/09 19:54:49;;;;;;;;;;;;;;;21.40;29.99;95438.72;10393319;28;1871;-71
2022/04/09 19:59:49;;;;;;;;;;;;;;;21.51;30.29;95448.84;10383815;28;1725;-74
2022/04/09 20:04:50;;;;;;;;;;;;;;;21.46;30.63;95446.28;10386861;28;1973;-75
2022/04/09 20:09:50;;;;;;;;;;;;;;;21.46;30.10;95446.28;10400513;28;1837;-72
2022/04/09 20:14:51;;;;;;;;;;;;;;;21.47;30.60;95454.97;10401284;28;1442;-73
2022/04/09 20:19:51;;;;;;;;;;;;;;;21.46;30.56;95462.09;10403517;28;1430;-73
2022/04/09 20:24:52;;;;;;;;;;;;;;;21.47;30.56;95468.16;10401350;28;1902;-72
2022/04/09 20:29:52;;;;;;;;;;;;;;;21.47;30.71;95454.97;10401456;28;1595;-73
2022/04/09 20:34:54;;;;;;;;;;;;;;;21.47;30.79;95452.34;10401258;28;1780;-73
2022/04/09 20:39:55;;;;;;;;;;;;;;;21.48;30.65;95454.69;10399884;28;1541;-73
2022/04/09 20:44:57;;;;;;;;;;;;;;;21.46;30.59;95458.66;10413219;28;1910;-73
2022/04/09 20:49:57;;;;;;;;;;;;;;;21.46;31.15;95461.31;10416073;28;1607;-74
2022/04/09 20:54:57;;;;;;;;;;;;;;;21.46;30.87;95471.84;10382953;28;1649;-74
2022/04/09 20:59:58;;;;;;;;;;;;;;;21.45;30.24;95475.59;10397020;28;1461;-73
2022/04/09 21:04:58;;;;;;;;;;;;;;;21.44;30.90;95485.34;10397328;28;1902;-73
2022/04/09 21:09:58;;;;;;;;;;;;;;;21.45;30.87;95478.22;10380239;28;1496;-74
2022/04/09 21:14:59;;;;;;;;;;;;;;;21.45;30.64;95475.59;10394782;28;1507;-72
2022/04/09 21:19:59;;;;;;;;;;;;;;;21.45;30.96;95481.63;10395926;28;1440;-72
2022/04/09 21:24:59;;;;;;;;;;;;;;;21.44;30.53;95482.69;10381498;28;1965;-72
2022/04/09 21:30:00;;;;;;;;;;;;;;;21.43;30.41;95483.75;10398138;28;1494;-73
2022/04/09 21:35:00;;;;;;;;;;;;;;;21.44;30.41;95492.47;10399944;28;1756;-73
2022/04/09 21:40:01;;;;;;;;;;;;;;;21.45;30.50;95494.81;10398915;28;1637;-71
2022/04/09 21:45:02;;;;;;;;;;;;;;;21.49;30.08;95502.94;10398057;28;1938;-72
2022/04/09 21:50:03;;;;;;;;;;;;;;;21.56;31.89;95500.72;10413469;28;1779;-72
2022/04/09 21:55:04;;;;;;;;;;;;;;;21.61;30.81;95511.22;10395167;28;1771;-71
2022/04/09 22:00:07;;;;;;;;;;;;;;;21.50;28.55;95510.56;10396305;28;1724;-72
2022/04/09 22:05:08;;;;;;;;;;;;;;;21.50;29.55;95525.59;10395356;28;2132;-72
2022/04/09 22:10:09;;;;;;;;;;;;;;;21.48;29.62;95528.53;10395355;28;1854;-72
2022/04/09 22:15:09;;;;;;;;;;;;;;;21.46;28.68;95533.31;10404887;28;1768;-73
2022/04/09 22:20:11;;;;;;;;;;;;;;;21.47;30.32;95536.72;10415103;28;1871;-72
2022/04/09 22:25:11;;;;;;;;;;;;;;;21.51;31.05;95566.75;10405266;28;1956;-72
2022/04/09 22:30:12;;;;;;;;;;;;;;;21.49;30.73;95568.88;10407946;28;1848;-73
2022/04/09 22:35:12;;;;;;;;;;;;;;;21.46;29.76;95562.31;10403954;28;1912;-73
2022/04/09 22:40:13;;;;;;;;;;;;;;;21.44;29.83;95585.53;10402497;28;1766;-72
2022/04/09 22:45:14;;;;;;;;;;;;;;;21.44;29.88;95585.53;10414698;28;1919;-73
2022/04/09 22:50:14;;;;;;;;;;;;;;;21.49;31.51;95587.34;10416916;28;1892;-72
2022/04/09 22:55:14;;;;;;;;;;;;;;;21.45;30.21;95594.25;10381727;28;1783;-72
2022/04/09 23:00:16;;;;;;;;;;;;;;;21.46;30.35;95603.72;10400673;28;1869;-72
2022/04/09 23:05:16;;;;;;;;;;;;;;;21.44;30.17;95588.19;10405046;28;2194;-71
2022/04/09 23:10:17;;;;;;;;;;;;;;;21.38;28.94;95591.16;10404941;28;1786;-72
2022/04/09 23:15:18;;;;;;;;;;;;;;;21.36;29.29;95578.25;10384496;28;1870;-70
2022/04/09 23:20:19;;;;;;;;;;;;;;;21.37;29.42;95585.09;10402187;28;1838;-70
2022/04/09 23:25:19;;;;;;;;;;;;;;;21.34;28.59;95596.22;10415437;28;2010;-71
2022/04/09 23:30:19;;;;;;;;;;;;;;;21.37;29.35;95592.25;10397048;28;1864;-71
2022/04/09 23:35:20;;;;;;;;;;;;;;;21.34;29.59;95598.06;10397553;28;1834;-71
2022/04/09 23:40:20;;;;;;;;;;;;;;;21.33;29.02;95601.78;10416325;28;1858;-71
2022/04/09 23:45:20;;;;;;;;;;;;;;;21.31;29.71;95598.63;10400844;28;1977;-71
2022/04/09 23:50:21;;;;;;;;;;;;;;;21.32;28.97;95608.09;10399786;28;1853;-70
2022/04/09 23:55:21;;;;;;;;;;;;;;;21.30;28.74;95612.88;10400728;28;1832;-70
